Natural Bridge, New York
Current Conditions -  °F | °C
As of 7:03 PM on Wednesday 22 Oct 2014 (Local Time) from KGTB Reporting Station
Overcast Overcast  
Wind Chill: 41°   Ceiling: 15000
Heat Index: 46°   Visibility: 10mi
Dew Point: 39°   Wind: 13mph
Humidity: 76%   Direction: 40°NE
Pressure: 30.16"   Gusts: NA
Location:  44.07°N, 75.49°W
Report Text: KGTB 222303Z AUTO 04011KT 10SM SCT022 OVC150 08/04 A3016 RMK AO2
Loading
Personal Weather Stations






























Interactive Weather Map
Tropical Storm Tracking
New forecast layout! Learn more

10-Day Weather Forecast

Advertisements
Track Severe Weather on mobile